sensor_id;sensor_type;location;lat;lon;timestamp;P1;durP1;ratioP1;P2;durP2;ratioP2
29280;SDS011;25048;49.590;11.026;2023-04-25T00:00:36;794.40;;;548.07;;
29280;SDS011;25048;49.590;11.026;2023-04-25T00:03:03;731.33;;;419.77;;
29280;SDS011;25048;49.590;11.026;2023-04-25T00:05:32;823.50;;;586.30;;
29280;SDS011;25048;49.590;11.026;2023-04-25T00:07:59;793.77;;;439.67;;
29280;SDS011;25048;49.590;11.026;2023-04-25T00:10:27;810.03;;;442.50;;
29280;SDS011;25048;49.590;11.026;2023-04-25T00:12:54;761.10;;;444.13;;
29280;SDS011;25048;49.590;11.026;2023-04-25T00:15:23;843.80;;;567.70;;
29280;SDS011;25048;49.590;11.026;2023-04-25T00:17:50;10.63;;;4.07;;
29280;SDS011;25048;49.590;11.026;2023-04-25T00:20:18;336.53;;;303.20;;
29280;SDS011;25048;49.590;11.026;2023-04-25T00:22:47;303.23;;;283.87;;
29280;SDS011;25048;49.590;11.026;2023-04-25T00:25:15;380.00;;;350.80;;
29280;SDS011;25048;49.590;11.026;2023-04-25T00:27:42;384.33;;;356.67;;
29280;SDS011;25048;49.590;11.026;2023-04-25T00:30:10;191.17;;;177.80;;
29280;SDS011;25048;49.590;11.026;2023-04-25T00:32:39;279.10;;;259.67;;
29280;SDS011;25048;49.590;11.026;2023-04-25T00:35:06;487.47;;;444.20;;
29280;SDS011;25048;49.590;11.026;2023-04-25T00:37:35;539.40;;;483.00;;
29280;SDS011;25048;49.590;11.026;2023-04-25T00:40:04;518.43;;;470.80;;
29280;SDS011;25048;49.590;11.026;2023-04-25T00:42:33;63.53;;;59.20;;
29280;SDS011;25048;49.590;11.026;2023-04-25T00:45:04;83.80;;;78.40;;
29280;SDS011;25048;49.590;11.026;2023-04-25T00:47:33;120.70;;;112.80;;
29280;SDS011;25048;49.590;11.026;2023-04-25T00:50:01;266.17;;;248.90;;
29280;SDS011;25048;49.590;11.026;2023-04-25T00:52:29;239.53;;;224.20;;
29280;SDS011;25048;49.590;11.026;2023-04-25T00:54:57;282.83;;;265.07;;
29280;SDS011;25048;49.590;11.026;2023-04-25T00:57:25;346.17;;;321.77;;
29280;SDS011;25048;49.590;11.026;2023-04-25T00:59:52;411.80;;;380.57;;
29280;SDS011;25048;49.590;11.026;2023-04-25T01:02:20;436.30;;;400.67;;
29280;SDS011;25048;49.590;11.026;2023-04-25T01:04:48;428.73;;;395.73;;
29280;SDS011;25048;49.590;11.026;2023-04-25T01:07:16;461.43;;;423.90;;
29280;SDS011;25048;49.590;11.026;2023-04-25T01:09:43;516.73;;;470.33;;
29280;SDS011;25048;49.590;11.026;2023-04-25T01:12:11;562.73;;;508.37;;
29280;SDS011;25048;49.590;11.026;2023-04-25T01:14:40;519.97;;;470.80;;
29280;SDS011;25048;49.590;11.026;2023-04-25T01:17:08;735.63;;;511.40;;
29280;SDS011;25048;49.590;11.026;2023-04-25T01:19:36;748.73;;;444.40;;
29280;SDS011;25048;49.590;11.026;2023-04-25T01:22:04;500.43;;;386.87;;
29280;SDS011;25048;49.590;11.026;2023-04-25T01:24:32;4.67;;;2.50;;
29280;SDS011;25048;49.590;11.026;2023-04-25T01:27:00;253.10;;;235.23;;
29280;SDS011;25048;49.590;11.026;2023-04-25T01:29:28;310.33;;;290.53;;
29280;SDS011;25048;49.590;11.026;2023-04-25T01:31:56;482.70;;;425.27;;
29280;SDS011;25048;49.590;11.026;2023-04-25T01:34:25;520.10;;;476.00;;
29280;SDS011;25048;49.590;11.026;2023-04-25T01:36:53;9.13;;;3.63;;
29280;SDS011;25048;49.590;11.026;2023-04-25T01:39:21;16.67;;;13.60;;
29280;SDS011;25048;49.590;11.026;2023-04-25T01:41:48;7.03;;;3.40;;
29280;SDS011;25048;49.590;11.026;2023-04-25T01:44:16;6.90;;;3.40;;
29280;SDS011;25048;49.590;11.026;2023-04-25T01:46:44;7.00;;;3.40;;
29280;SDS011;25048;49.590;11.026;2023-04-25T01:49:11;4.83;;;2.97;;
29280;SDS011;25048;49.590;11.026;2023-04-25T01:51:39;8.63;;;3.47;;
29280;SDS011;25048;49.590;11.026;2023-04-25T01:54:07;5.87;;;3.60;;
29280;SDS011;25048;49.590;11.026;2023-04-25T01:56:37;8.60;;;3.57;;
29280;SDS011;25048;49.590;11.026;2023-04-25T01:59:05;6.60;;;3.10;;
29280;SDS011;25048;49.590;11.026;2023-04-25T02:01:33;6.10;;;3.37;;
29280;SDS011;25048;49.590;11.026;2023-04-25T02:04:00;7.40;;;3.50;;
29280;SDS011;25048;49.590;11.026;2023-04-25T02:06:28;5.10;;;2.93;;
29280;SDS011;25048;49.590;11.026;2023-04-25T02:08:56;7.23;;;3.70;;
29280;SDS011;25048;49.590;11.026;2023-04-25T02:11:24;8.30;;;3.70;;
29280;SDS011;25048;49.590;11.026;2023-04-25T02:13:51;5.67;;;3.27;;
29280;SDS011;25048;49.590;11.026;2023-04-25T02:16:19;9.37;;;4.10;;
29280;SDS011;25048;49.590;11.026;2023-04-25T02:18:46;6.73;;;3.70;;
29280;SDS011;25048;49.590;11.026;2023-04-25T02:21:14;7.07;;;3.87;;
29280;SDS011;25048;49.590;11.026;2023-04-25T02:23:42;9.00;;;3.77;;
29280;SDS011;25048;49.590;11.026;2023-04-25T02:26:11;8.07;;;3.40;;
29280;SDS011;25048;49.590;11.026;2023-04-25T02:28:39;98.57;;;92.23;;
29280;SDS011;25048;49.590;11.026;2023-04-25T02:31:06;100.50;;;93.97;;
29280;SDS011;25048;49.590;11.026;2023-04-25T02:33:34;297.77;;;276.20;;
29280;SDS011;25048;49.590;11.026;2023-04-25T02:36:02;501.80;;;456.80;;
29280;SDS011;25048;49.590;11.026;2023-04-25T02:38:29;8.53;;;3.87;;
29280;SDS011;25048;49.590;11.026;2023-04-25T02:40:57;35.53;;;32.57;;
29280;SDS011;25048;49.590;11.026;2023-04-25T02:43:25;245.00;;;227.50;;
29280;SDS011;25048;49.590;11.026;2023-04-25T02:45:52;399.23;;;367.93;;
29280;SDS011;25048;49.590;11.026;2023-04-25T02:48:20;570.17;;;513.20;;
29280;SDS011;25048;49.590;11.026;2023-04-25T02:50:47;462.73;;;424.03;;
29280;SDS011;25048;49.590;11.026;2023-04-25T02:53:15;350.70;;;317.83;;
29280;SDS011;25048;49.590;11.026;2023-04-25T02:55:42;325.90;;;259.53;;
29280;SDS011;25048;49.590;11.026;2023-04-25T02:58:10;753.87;;;404.93;;
29280;SDS011;25048;49.590;11.026;2023-04-25T03:00:37;651.60;;;336.13;;
29280;SDS011;25048;49.590;11.026;2023-04-25T03:03:05;8.63;;;4.50;;
29280;SDS011;25048;49.590;11.026;2023-04-25T03:05:32;760.33;;;434.43;;
29280;SDS011;25048;49.590;11.026;2023-04-25T03:08:00;282.07;;;260.13;;
29280;SDS011;25048;49.590;11.026;2023-04-25T03:10:27;334.70;;;310.77;;
29280;SDS011;25048;49.590;11.026;2023-04-25T03:12:55;144.20;;;134.27;;
29280;SDS011;25048;49.590;11.026;2023-04-25T03:15:22;380.20;;;352.83;;
29280;SDS011;25048;49.590;11.026;2023-04-25T03:17:50;128.47;;;120.27;;
29280;SDS011;25048;49.590;11.026;2023-04-25T03:20:17;155.03;;;145.97;;
29280;SDS011;25048;49.590;11.026;2023-04-25T03:22:45;417.83;;;384.17;;
29280;SDS011;25048;49.590;11.026;2023-04-25T03:25:12;162.70;;;112.80;;
29280;SDS011;25048;49.590;11.026;2023-04-25T03:27:40;69.20;;;61.83;;
29280;SDS011;25048;49.590;11.026;2023-04-25T03:30:07;6.37;;;3.83;;
29280;SDS011;25048;49.590;11.026;2023-04-25T03:32:35;10.13;;;4.20;;
29280;SDS011;25048;49.590;11.026;2023-04-25T03:35:02;7.40;;;4.00;;
29280;SDS011;25048;49.590;11.026;2023-04-25T03:37:31;6.10;;;3.63;;
29280;SDS011;25048;49.590;11.026;2023-04-25T03:39:58;11.00;;;3.90;;
29280;SDS011;25048;49.590;11.026;2023-04-25T03:42:26;6.63;;;3.50;;
29280;SDS011;25048;49.590;11.026;2023-04-25T03:44:53;7.17;;;3.80;;
29280;SDS011;25048;49.590;11.026;2023-04-25T03:47:21;190.70;;;177.57;;
29280;SDS011;25048;49.590;11.026;2023-04-25T03:49:48;6.50;;;3.90;;
29280;SDS011;25048;49.590;11.026;2023-04-25T03:52:17;5.93;;;3.67;;
29280;SDS011;25048;49.590;11.026;2023-04-25T03:54:45;7.20;;;4.00;;
29280;SDS011;25048;49.590;11.026;2023-04-25T03:57:13;7.37;;;4.20;;
29280;SDS011;25048;49.590;11.026;2023-04-25T03:59:40;8.93;;;4.47;;
29280;SDS011;25048;49.590;11.026;2023-04-25T04:02:08;21.33;;;15.57;;
29280;SDS011;25048;49.590;11.026;2023-04-25T04:04:35;303.83;;;281.57;;
29280;SDS011;25048;49.590;11.026;2023-04-25T04:07:02;534.10;;;478.10;;
29280;SDS011;25048;49.590;11.026;2023-04-25T04:09:30;151.57;;;98.60;;
29280;SDS011;25048;49.590;11.026;2023-04-25T04:11:58;9.13;;;5.10;;
29280;SDS011;25048;49.590;11.026;2023-04-25T04:14:27;7.33;;;4.50;;
29280;SDS011;25048;49.590;11.026;2023-04-25T04:16:55;5.90;;;4.00;;
29280;SDS011;25048;49.590;11.026;2023-04-25T04:19:23;8.20;;;4.80;;
29280;SDS011;25048;49.590;11.026;2023-04-25T04:21:50;10.30;;;5.07;;
29280;SDS011;25048;49.590;11.026;2023-04-25T04:24:18;7.23;;;4.40;;
29280;SDS011;25048;49.590;11.026;2023-04-25T04:26:45;6.47;;;4.23;;
29280;SDS011;25048;49.590;11.026;2023-04-25T04:29:13;8.87;;;4.90;;
29280;SDS011;25048;49.590;11.026;2023-04-25T04:31:42;10.63;;;4.97;;
29280;SDS011;25048;49.590;11.026;2023-04-25T04:34:09;7.13;;;4.73;;
29280;SDS011;25048;49.590;11.026;2023-04-25T04:36:38;10.60;;;5.10;;
29280;SDS011;25048;49.590;11.026;2023-04-25T04:39:07;11.37;;;5.43;;
29280;SDS011;25048;49.590;11.026;2023-04-25T04:41:35;13.83;;;5.53;;
29280;SDS011;25048;49.590;11.026;2023-04-25T04:44:02;10.17;;;5.07;;
29280;SDS011;25048;49.590;11.026;2023-04-25T04:46:30;8.60;;;4.40;;
29280;SDS011;25048;49.590;11.026;2023-04-25T04:48:58;10.97;;;5.30;;
29280;SDS011;25048;49.590;11.026;2023-04-25T04:51:25;10.20;;;4.53;;
29280;SDS011;25048;49.590;11.026;2023-04-25T04:53:53;12.07;;;5.03;;
29280;SDS011;25048;49.590;11.026;2023-04-25T04:56:22;485.60;;;437.97;;
29280;SDS011;25048;49.590;11.026;2023-04-25T04:58:51;533.47;;;478.33;;
29280;SDS011;25048;49.590;11.026;2023-04-25T05:01:18;584.43;;;476.33;;
29280;SDS011;25048;49.590;11.026;2023-04-25T05:03:46;8.47;;;4.27;;
29280;SDS011;25048;49.590;11.026;2023-04-25T05:06:13;8.40;;;4.20;;
29280;SDS011;25048;49.590;11.026;2023-04-25T05:08:41;9.20;;;4.30;;
29280;SDS011;25048;49.590;11.026;2023-04-25T05:11:08;10.70;;;4.63;;
29280;SDS011;25048;49.590;11.026;2023-04-25T05:13:37;13.07;;;4.83;;
29280;SDS011;25048;49.590;11.026;2023-04-25T05:16:04;5.73;;;3.93;;
29280;SDS011;25048;49.590;11.026;2023-04-25T05:18:32;681.93;;;463.47;;
29280;SDS011;25048;49.590;11.026;2023-04-25T05:20:59;9.87;;;4.07;;
29280;SDS011;25048;49.590;11.026;2023-04-25T05:23:27;8.87;;;5.37;;
29280;SDS011;25048;49.590;11.026;2023-04-25T05:25:56;527.23;;;474.80;;
29280;SDS011;25048;49.590;11.026;2023-04-25T05:28:23;485.00;;;434.23;;
29280;SDS011;25048;49.590;11.026;2023-04-25T05:30:51;8.87;;;3.67;;
29280;SDS011;25048;49.590;11.026;2023-04-25T05:33:18;6.70;;;3.87;;
29280;SDS011;25048;49.590;11.026;2023-04-25T05:35:46;564.27;;;480.17;;
29280;SDS011;25048;49.590;11.026;2023-04-25T05:38:13;660.93;;;510.50;;
29280;SDS011;25048;49.590;11.026;2023-04-25T05:40:41;8.93;;;8.07;;
29280;SDS011;25048;49.590;11.026;2023-04-25T05:43:08;125.83;;;117.90;;
29280;SDS011;25048;49.590;11.026;2023-04-25T05:45:36;54.23;;;50.93;;
29280;SDS011;25048;49.590;11.026;2023-04-25T05:48:03;31.97;;;29.93;;
29280;SDS011;25048;49.590;11.026;2023-04-25T05:50:31;43.50;;;40.60;;
29280;SDS011;25048;49.590;11.026;2023-04-25T05:52:58;40.53;;;37.73;;
29280;SDS011;25048;49.590;11.026;2023-04-25T05:55:26;80.47;;;75.47;;
29280;SDS011;25048;49.590;11.026;2023-04-25T05:57:53;203.20;;;190.70;;
29280;SDS011;25048;49.590;11.026;2023-04-25T06:00:21;306.43;;;286.13;;
29280;SDS011;25048;49.590;11.026;2023-04-25T06:02:49;333.13;;;309.73;;
29280;SDS011;25048;49.590;11.026;2023-04-25T06:05:16;517.60;;;470.70;;
29280;SDS011;25048;49.590;11.026;2023-04-25T06:07:44;556.93;;;502.67;;
29280;SDS011;25048;49.590;11.026;2023-04-25T06:10:11;562.73;;;490.27;;
29280;SDS011;25048;49.590;11.026;2023-04-25T06:12:39;695.63;;;473.93;;
29280;SDS011;25048;49.590;11.026;2023-04-25T06:15:07;762.43;;;476.27;;
29280;SDS011;25048;49.590;11.026;2023-04-25T06:17:35;11.37;;;5.20;;
29280;SDS011;25048;49.590;11.026;2023-04-25T06:20:03;7.77;;;4.70;;
29280;SDS011;25048;49.590;11.026;2023-04-25T06:22:31;8.57;;;4.63;;
29280;SDS011;25048;49.590;11.026;2023-04-25T06:24:59;8.43;;;4.80;;
29280;SDS011;25048;49.590;11.026;2023-04-25T06:27:28;8.67;;;4.87;;
29280;SDS011;25048;49.590;11.026;2023-04-25T06:29:56;8.87;;;5.40;;
29280;SDS011;25048;49.590;11.026;2023-04-25T06:32:23;10.57;;;5.37;;
29280;SDS011;25048;49.590;11.026;2023-04-25T06:34:52;10.40;;;5.33;;
29280;SDS011;25048;49.590;11.026;2023-04-25T06:37:20;10.13;;;5.90;;
29280;SDS011;25048;49.590;11.026;2023-04-25T06:39:47;16.07;;;6.00;;
29280;SDS011;25048;49.590;11.026;2023-04-25T06:42:15;15.90;;;6.17;;
29280;SDS011;25048;49.590;11.026;2023-04-25T06:44:42;11.93;;;5.90;;
29280;SDS011;25048;49.590;11.026;2023-04-25T06:47:10;12.97;;;6.03;;
29280;SDS011;25048;49.590;11.026;2023-04-25T06:49:38;11.47;;;5.87;;
29280;SDS011;25048;49.590;11.026;2023-04-25T06:52:05;9.73;;;6.33;;
29280;SDS011;25048;49.590;11.026;2023-04-25T06:54:34;11.47;;;6.47;;
29280;SDS011;25048;49.590;11.026;2023-04-25T06:57:01;17.17;;;7.07;;
29280;SDS011;25048;49.590;11.026;2023-04-25T06:59:29;9.37;;;5.53;;
29280;SDS011;25048;49.590;11.026;2023-04-25T07:01:57;6.30;;;4.33;;
29280;SDS011;25048;49.590;11.026;2023-04-25T07:04:24;8.60;;;4.20;;
29280;SDS011;25048;49.590;11.026;2023-04-25T07:06:51;6.57;;;3.30;;
29280;SDS011;25048;49.590;11.026;2023-04-25T07:09:20;6.33;;;3.50;;
29280;SDS011;25048;49.590;11.026;2023-04-25T07:11:48;10.13;;;3.93;;
29280;SDS011;25048;49.590;11.026;2023-04-25T07:14:15;9.90;;;3.60;;
29280;SDS011;25048;49.590;11.026;2023-04-25T07:16:43;6.17;;;3.27;;
29280;SDS011;25048;49.590;11.026;2023-04-25T07:19:10;7.93;;;3.50;;
29280;SDS011;25048;49.590;11.026;2023-04-25T07:21:38;9.97;;;4.30;;
29280;SDS011;25048;49.590;11.026;2023-04-25T07:24:05;7.47;;;3.57;;
29280;SDS011;25048;49.590;11.026;2023-04-25T07:26:33;4.23;;;2.87;;
29280;SDS011;25048;49.590;11.026;2023-04-25T07:29:00;8.77;;;4.03;;
29280;SDS011;25048;49.590;11.026;2023-04-25T07:31:28;15.17;;;3.83;;
29280;SDS011;25048;49.590;11.026;2023-04-25T07:33:55;12.60;;;4.53;;
29280;SDS011;25048;49.590;11.026;2023-04-25T07:36:23;6.23;;;3.57;;
29280;SDS011;25048;49.590;11.026;2023-04-25T07:38:52;6.60;;;3.57;;
29280;SDS011;25048;49.590;11.026;2023-04-25T07:41:19;7.07;;;4.00;;
29280;SDS011;25048;49.590;11.026;2023-04-25T07:43:47;9.37;;;4.27;;
29280;SDS011;25048;49.590;11.026;2023-04-25T07:46:14;7.73;;;4.20;;
29280;SDS011;25048;49.590;11.026;2023-04-25T07:48:42;6.83;;;4.00;;
29280;SDS011;25048;49.590;11.026;2023-04-25T07:51:09;13.90;;;12.53;;
29280;SDS011;25048;49.590;11.026;2023-04-25T07:53:37;7.47;;;4.97;;
29280;SDS011;25048;49.590;11.026;2023-04-25T07:56:05;12.70;;;5.00;;
29280;SDS011;25048;49.590;11.026;2023-04-25T07:58:33;143.83;;;134.67;;
29280;SDS011;25048;49.590;11.026;2023-04-25T08:01:01;207.87;;;193.43;;
29280;SDS011;25048;49.590;11.026;2023-04-25T08:03:28;335.27;;;311.13;;
29280;SDS011;25048;49.590;11.026;2023-04-25T08:05:56;304.40;;;283.10;;
29280;SDS011;25048;49.590;11.026;2023-04-25T08:08:23;387.97;;;358.13;;
29280;SDS011;25048;49.590;11.026;2023-04-25T08:10:51;417.97;;;383.93;;
29280;SDS011;25048;49.590;11.026;2023-04-25T08:13:19;417.30;;;385.07;;
29280;SDS011;25048;49.590;11.026;2023-04-25T08:15:46;390.33;;;361.77;;
29280;SDS011;25048;49.590;11.026;2023-04-25T08:18:19;404.77;;;373.93;;
29280;SDS011;25048;49.590;11.026;2023-04-25T08:20:43;445.90;;;409.57;;
29280;SDS011;25048;49.590;11.026;2023-04-25T08:23:13;445.67;;;409.43;;
29280;SDS011;25048;49.590;11.026;2023-04-25T08:25:40;581.73;;;528.80;;
29280;SDS011;25048;49.590;11.026;2023-04-25T08:28:08;621.13;;;562.63;;
29280;SDS011;25048;49.590;11.026;2023-04-25T08:30:36;598.97;;;544.33;;
29280;SDS011;25048;49.590;11.026;2023-04-25T08:33:03;590.47;;;538.17;;
29280;SDS011;25048;49.590;11.026;2023-04-25T08:35:31;657.93;;;597.23;;
29280;SDS011;25048;49.590;11.026;2023-04-25T08:37:59;651.20;;;586.70;;
29280;SDS011;25048;49.590;11.026;2023-04-25T08:40:27;683.63;;;608.73;;
29280;SDS011;25048;49.590;11.026;2023-04-25T08:42:58;687.70;;;612.57;;
29280;SDS011;25048;49.590;11.026;2023-04-25T08:45:29;677.57;;;605.43;;
29280;SDS011;25048;49.590;11.026;2023-04-25T08:47:58;707.63;;;612.67;;
29280;SDS011;25048;49.590;11.026;2023-04-25T08:50:27;701.40;;;615.43;;
29280;SDS011;25048;49.590;11.026;2023-04-25T08:52:56;658.27;;;596.03;;
29280;SDS011;25048;49.590;11.026;2023-04-25T08:55:27;557.70;;;511.27;;
29280;SDS011;25048;49.590;11.026;2023-04-25T08:57:56;642.33;;;585.37;;
29280;SDS011;25048;49.590;11.026;2023-04-25T09:00:26;631.33;;;576.57;;
29280;SDS011;25048;49.590;11.026;2023-04-25T09:02:54;599.33;;;548.80;;
29280;SDS011;25048;49.590;11.026;2023-04-25T09:05:22;656.40;;;599.10;;
29280;SDS011;25048;49.590;11.026;2023-04-25T09:07:50;710.90;;;644.17;;
29280;SDS011;25048;49.590;11.026;2023-04-25T09:10:18;691.83;;;626.03;;
29280;SDS011;25048;49.590;11.026;2023-04-25T09:13:01;702.93;;;634.07;;
29280;SDS011;25048;49.590;11.026;2023-04-25T09:15:31;685.80;;;625.90;;
29280;SDS011;25048;49.590;11.026;2023-04-25T09:17:59;707.80;;;645.03;;
29280;SDS011;25048;49.590;11.026;2023-04-25T09:20:27;703.57;;;643.60;;
29280;SDS011;25048;49.590;11.026;2023-04-25T09:23:05;755.87;;;684.63;;
29280;SDS011;25048;49.590;11.026;2023-04-25T09:25:35;752.93;;;680.13;;
29280;SDS011;25048;49.590;11.026;2023-04-25T09:28:05;751.33;;;680.30;;
29280;SDS011;25048;49.590;11.026;2023-04-25T09:30:34;775.00;;;702.10;;
29280;SDS011;25048;49.590;11.026;2023-04-25T09:33:09;792.40;;;708.37;;
29280;SDS011;25048;49.590;11.026;2023-04-25T09:35:39;792.00;;;707.47;;
29280;SDS011;25048;49.590;11.026;2023-04-25T09:38:09;773.53;;;688.93;;
29280;SDS011;25048;49.590;11.026;2023-04-25T09:40:39;775.47;;;696.20;;
29280;SDS011;25048;49.590;11.026;2023-04-25T09:43:09;800.60;;;713.87;;
29280;SDS011;25048;49.590;11.026;2023-04-25T09:45:40;803.60;;;719.10;;
29280;SDS011;25048;49.590;11.026;2023-04-25T09:48:09;815.77;;;706.10;;
29280;SDS011;25048;49.590;11.026;2023-04-25T09:50:37;860.70;;;707.70;;
29280;SDS011;25048;49.590;11.026;2023-04-25T09:53:05;843.03;;;663.27;;
29280;SDS011;25048;49.590;11.026;2023-04-25T09:55:33;690.40;;;235.23;;
29280;SDS011;25048;49.590;11.026;2023-04-25T09:58:05;5.07;;;2.20;;
29280;SDS011;25048;49.590;11.026;2023-04-25T10:00:33;6.50;;;2.67;;
29280;SDS011;25048;49.590;11.026;2023-04-25T10:03:01;10.50;;;5.63;;
29280;SDS011;25048;49.590;11.026;2023-04-25T10:05:30;5.00;;;2.37;;
29280;SDS011;25048;49.590;11.026;2023-04-25T10:08:00;6.97;;;2.33;;
29280;SDS011;25048;49.590;11.026;2023-04-25T10:10:30;5.17;;;1.90;;
29280;SDS011;25048;49.590;11.026;2023-04-25T10:13:00;6.27;;;1.93;;
29280;SDS011;25048;49.590;11.026;2023-04-25T10:15:29;7.07;;;2.30;;
29280;SDS011;25048;49.590;11.026;2023-04-25T10:17:58;8.93;;;2.67;;
29280;SDS011;25048;49.590;11.026;2023-04-25T10:20:25;3.27;;;2.10;;
29280;SDS011;25048;49.590;11.026;2023-04-25T10:22:53;2.60;;;1.70;;
29280;SDS011;25048;49.590;11.026;2023-04-25T10:25:23;7.43;;;2.27;;
29280;SDS011;25048;49.590;11.026;2023-04-25T10:27:52;3.30;;;1.87;;
29280;SDS011;25048;49.590;11.026;2023-04-25T10:30:20;5.13;;;2.10;;
29280;SDS011;25048;49.590;11.026;2023-04-25T10:32:47;5.17;;;2.30;;
29280;SDS011;25048;49.590;11.026;2023-04-25T10:35:24;3.70;;;1.60;;
29280;SDS011;25048;49.590;11.026;2023-04-25T10:38:15;5.40;;;2.10;;
29280;SDS011;25048;49.590;11.026;2023-04-25T10:40:33;2.13;;;1.40;;
29280;SDS011;25048;49.590;11.026;2023-04-25T10:48:58;7.23;;;3.90;;
29280;SDS011;25048;49.590;11.026;2023-04-25T10:51:23;218.63;;;201.40;;
29280;SDS011;25048;49.590;11.026;2023-04-25T10:56:27;645.73;;;239.57;;
29280;SDS011;25048;49.590;11.026;2023-04-25T10:59:07;645.27;;;232.80;;
29280;SDS011;25048;49.590;11.026;2023-04-25T11:01:43;651.43;;;235.53;;
29280;SDS011;25048;49.590;11.026;2023-04-25T11:04:25;967.87;;;864.67;;
29280;SDS011;25048;49.590;11.026;2023-04-25T11:09:33;686.93;;;335.27;;
29280;SDS011;25048;49.590;11.026;2023-04-25T11:12:02;867.60;;;752.60;;
29280;SDS011;25048;49.590;11.026;2023-04-25T11:14:29;400.07;;;370.43;;
29280;SDS011;25048;49.590;11.026;2023-04-25T11:16:57;887.47;;;770.00;;
29280;SDS011;25048;49.590;11.026;2023-04-25T11:19:26;866.93;;;758.97;;
29280;SDS011;25048;49.590;11.026;2023-04-25T11:22:00;864.97;;;771.37;;
29280;SDS011;25048;49.590;11.026;2023-04-25T11:24:30;7.40;;;2.43;;
29280;SDS011;25048;49.590;11.026;2023-04-25T11:26:56;747.30;;;673.47;;
29280;SDS011;25048;49.590;11.026;2023-04-25T11:29:28;557.20;;;510.50;;
29280;SDS011;25048;49.590;11.026;2023-04-25T11:31:57;886.23;;;774.00;;
29280;SDS011;25048;49.590;11.026;2023-04-25T11:34:25;7.67;;;2.33;;
29280;SDS011;25048;49.590;11.026;2023-04-25T11:36:56;4.93;;;2.33;;
29280;SDS011;25048;49.590;11.026;2023-04-25T11:39:24;21.07;;;19.43;;
29280;SDS011;25048;49.590;11.026;2023-04-25T11:41:52;19.65;;;18.25;;
29280;SDS011;25048;49.590;11.026;2023-04-25T11:44:21;63.73;;;60.03;;
29280;SDS011;25048;49.590;11.026;2023-04-25T11:46:49;24.63;;;22.77;;
29280;SDS011;25048;49.590;11.026;2023-04-25T11:49:16;122.00;;;114.40;;
29280;SDS011;25048;49.590;11.026;2023-04-25T11:51:47;181.20;;;169.37;;
29280;SDS011;25048;49.590;11.026;2023-04-25T11:54:15;234.37;;;214.87;;
29280;SDS011;25048;49.590;11.026;2023-04-25T11:56:48;7.27;;;6.57;;
29280;SDS011;25048;49.590;11.026;2023-04-25T11:59:12;1.93;;;1.77;;
29280;SDS011;25048;49.590;11.026;2023-04-25T12:01:41;14.70;;;13.33;;
29280;SDS011;25048;49.590;11.026;2023-04-25T12:04:14;6.37;;;2.57;;
29280;SDS011;25048;49.590;11.026;2023-04-25T12:06:43;885.50;;;788.03;;
29280;SDS011;25048;49.590;11.026;2023-04-25T12:09:15;881.07;;;775.97;;
29280;SDS011;25048;49.590;11.026;2023-04-25T12:11:46;215.87;;;202.07;;
29280;SDS011;25048;49.590;11.026;2023-04-25T12:14:29;174.27;;;163.23;;
29280;SDS011;25048;49.590;11.026;2023-04-25T12:17:02;152.57;;;143.02;;
29280;SDS011;25048;49.590;11.026;2023-04-25T12:19:31;236.73;;;220.53;;
29280;SDS011;25048;49.590;11.026;2023-04-25T12:22:00;134.13;;;125.37;;
29280;SDS011;25048;49.590;11.026;2023-04-25T12:24:33;236.57;;;221.17;;
29280;SDS011;25048;49.590;11.026;2023-04-25T12:27:01;114.70;;;107.53;;
29280;SDS011;25048;49.590;11.026;2023-04-25T12:29:31;398.17;;;371.63;;
29280;SDS011;25048;49.590;11.026;2023-04-25T12:31:59;827.57;;;737.77;;
29280;SDS011;25048;49.590;11.026;2023-04-25T12:34:31;916.33;;;828.17;;
29280;SDS011;25048;49.590;11.026;2023-04-25T12:37:01;897.20;;;798.33;;
29280;SDS011;25048;49.590;11.026;2023-04-25T12:39:29;878.67;;;765.83;;
29280;SDS011;25048;49.590;11.026;2023-04-25T12:41:56;298.43;;;279.17;;
29280;SDS011;25048;49.590;11.026;2023-04-25T12:44:24;101.90;;;95.77;;
29280;SDS011;25048;49.590;11.026;2023-04-25T12:46:52;92.70;;;86.67;;
29280;SDS011;25048;49.590;11.026;2023-04-25T12:49:20;118.30;;;110.90;;
29280;SDS011;25048;49.590;11.026;2023-04-25T12:51:48;85.77;;;79.27;;
29280;SDS011;25048;49.590;11.026;2023-04-25T12:54:17;465.37;;;433.23;;
29280;SDS011;25048;49.590;11.026;2023-04-25T12:56:44;499.60;;;464.67;;
29280;SDS011;25048;49.590;11.026;2023-04-25T12:59:12;573.83;;;531.30;;
29280;SDS011;25048;49.590;11.026;2023-04-25T13:01:39;492.10;;;457.17;;
29280;SDS011;25048;49.590;11.026;2023-04-25T13:04:07;399.10;;;372.17;;
29280;SDS011;25048;49.590;11.026;2023-04-25T13:06:34;654.03;;;603.30;;
29280;SDS011;25048;49.590;11.026;2023-04-25T13:09:02;644.62;;;594.92;;
29280;SDS011;25048;49.590;11.026;2023-04-25T13:11:30;618.13;;;570.50;;
29280;SDS011;25048;49.590;11.026;2023-04-25T13:13:57;706.33;;;650.17;;
29280;SDS011;25048;49.590;11.026;2023-04-25T13:16:26;892.90;;;797.87;;
29280;SDS011;25048;49.590;11.026;2023-04-25T13:18:53;852.63;;;723.07;;
29280;SDS011;25048;49.590;11.026;2023-04-25T13:21:21;912.70;;;835.27;;
29280;SDS011;25048;49.590;11.026;2023-04-25T13:23:49;804.30;;;734.67;;
29280;SDS011;25048;49.590;11.026;2023-04-25T13:26:17;558.00;;;517.13;;
29280;SDS011;25048;49.590;11.026;2023-04-25T13:28:44;791.50;;;725.13;;
29280;SDS011;25048;49.590;11.026;2023-04-25T13:31:11;793.40;;;727.33;;
29280;SDS011;25048;49.590;11.026;2023-04-25T13:33:39;866.00;;;795.20;;
29280;SDS011;25048;49.590;11.026;2023-04-25T13:36:07;863.23;;;790.67;;
29280;SDS011;25048;49.590;11.026;2023-04-25T13:38:34;725.53;;;668.43;;
29280;SDS011;25048;49.590;11.026;2023-04-25T13:41:02;877.47;;;750.83;;
29280;SDS011;25048;49.590;11.026;2023-04-25T13:43:29;815.13;;;642.17;;
29280;SDS011;25048;49.590;11.026;2023-04-25T13:45:59;902.90;;;825.40;;
29280;SDS011;25048;49.590;11.026;2023-04-25T13:48:27;905.07;;;810.10;;
29280;SDS011;25048;49.590;11.026;2023-04-25T13:50:54;879.47;;;760.27;;
29280;SDS011;25048;49.590;11.026;2023-04-25T13:53:22;810.10;;;629.67;;
29280;SDS011;25048;49.590;11.026;2023-04-25T13:55:49;843.67;;;772.27;;
29280;SDS011;25048;49.590;11.026;2023-04-25T13:58:17;63.37;;;59.67;;
29280;SDS011;25048;49.590;11.026;2023-04-25T14:00:46;6.17;;;3.57;;
29280;SDS011;25048;49.590;11.026;2023-04-25T14:03:13;6.50;;;2.30;;
29280;SDS011;25048;49.590;11.026;2023-04-25T14:05:41;254.87;;;238.37;;
29280;SDS011;25048;49.590;11.026;2023-04-25T14:08:09;883.37;;;740.50;;
29280;SDS011;25048;49.590;11.026;2023-04-25T14:10:36;762.33;;;600.30;;
29280;SDS011;25048;49.590;11.026;2023-04-25T14:13:04;650.17;;;200.37;;
29280;SDS011;25048;49.590;11.026;2023-04-25T14:15:32;6.47;;;2.40;;
29280;SDS011;25048;49.590;11.026;2023-04-25T14:18:00;9.97;;;2.60;;
29280;SDS011;25048;49.590;11.026;2023-04-25T14:20:28;5.37;;;2.23;;